sensor_id;sensor_type;location;lat;lon;timestamp;temperature;humidity
32293;DHT22;43233;48.608;8.838;2022-12-11T00:01:11;-2.90;70.70
32293;DHT22;43233;48.608;8.838;2022-12-11T00:03:38;-2.90;70.30
32293;DHT22;43233;48.608;8.838;2022-12-11T00:06:08;-3.00;70.00
32293;DHT22;43233;48.608;8.838;2022-12-11T00:08:35;-3.00;70.20
32293;DHT22;43233;48.608;8.838;2022-12-11T00:11:01;-3.00;69.90
32293;DHT22;43233;48.608;8.838;2022-12-11T00:13:29;-3.10;69.80
32293;DHT22;43233;48.608;8.838;2022-12-11T00:15:57;-3.20;70.50
32293;DHT22;43233;48.608;8.838;2022-12-11T00:18:26;-3.20;70.70
32293;DHT22;43233;48.608;8.838;2022-12-11T00:20:51;-3.40;71.80
32293;DHT22;43233;48.608;8.838;2022-12-11T00:23:17;-3.50;72.60
32293;DHT22;43233;48.608;8.838;2022-12-11T00:25:44;-3.50;72.40
32293;DHT22;43233;48.608;8.838;2022-12-11T00:28:15;-3.50;72.30
32293;DHT22;43233;48.608;8.838;2022-12-11T00:30:43;-3.40;71.80
32293;DHT22;43233;48.608;8.838;2022-12-11T00:33:10;-3.40;71.50
32293;DHT22;43233;48.608;8.838;2022-12-11T00:35:45;-3.40;71.10
32293;DHT22;43233;48.608;8.838;2022-12-11T00:38:15;-3.40;70.70
32293;DHT22;43233;48.608;8.838;2022-12-11T00:40:41;-3.50;70.40
32293;DHT22;43233;48.608;8.838;2022-12-11T00:43:07;-3.50;70.10
32293;DHT22;43233;48.608;8.838;2022-12-11T00:45:46;-3.60;70.80
32293;DHT22;43233;48.608;8.838;2022-12-11T00:48:12;-3.70;71.40
32293;DHT22;43233;48.608;8.838;2022-12-11T00:50:39;-3.70;71.70
32293;DHT22;43233;48.608;8.838;2022-12-11T00:53:05;-3.70;71.70
32293;DHT22;43233;48.608;8.838;2022-12-11T00:55:35;-3.60;71.60
32293;DHT22;43233;48.608;8.838;2022-12-11T00:58:01;-3.60;71.70
32293;DHT22;43233;48.608;8.838;2022-12-11T01:00:26;-3.60;71.80
32293;DHT22;43233;48.608;8.838;2022-12-11T01:02:52;-3.60;71.90
32293;DHT22;43233;48.608;8.838;2022-12-11T01:05:18;-3.60;72.20
32293;DHT22;43233;48.608;8.838;2022-12-11T01:07:43;-3.70;73.10
32293;DHT22;43233;48.608;8.838;2022-12-11T01:10:11;-3.80;73.40
32293;DHT22;43233;48.608;8.838;2022-12-11T01:13:03;-3.80;74.10
32293;DHT22;43233;48.608;8.838;2022-12-11T01:15:33;-3.70;74.50
32293;DHT22;43233;48.608;8.838;2022-12-11T01:17:58;-3.70;74.40
32293;DHT22;43233;48.608;8.838;2022-12-11T01:20:25;-3.60;74.90
32293;DHT22;43233;48.608;8.838;2022-12-11T01:22:52;-3.60;75.30
32293;DHT22;43233;48.608;8.838;2022-12-11T01:25:18;-3.50;75.50
32293;DHT22;43233;48.608;8.838;2022-12-11T01:27:44;-3.50;75.60
32293;DHT22;43233;48.608;8.838;2022-12-11T01:30:11;-3.40;75.60
32293;DHT22;43233;48.608;8.838;2022-12-11T01:32:37;-3.40;76.50
32293;DHT22;43233;48.608;8.838;2022-12-11T01:35:05;-3.30;76.80
32293;DHT22;43233;48.608;8.838;2022-12-11T01:37:32;-3.20;76.90
32293;DHT22;43233;48.608;8.838;2022-12-11T01:39:58;-3.10;77.00
32293;DHT22;43233;48.608;8.838;2022-12-11T01:42:23;-3.10;76.90
32293;DHT22;43233;48.608;8.838;2022-12-11T01:47:15;-2.80;76.70
32293;DHT22;43233;48.608;8.838;2022-12-11T01:49:41;-2.80;76.00
32293;DHT22;43233;48.608;8.838;2022-12-11T01:52:17;-2.80;76.20
32293;DHT22;43233;48.608;8.838;2022-12-11T01:54:44;-2.80;76.10
32293;DHT22;43233;48.608;8.838;2022-12-11T01:57:12;-2.70;75.90
32293;DHT22;43233;48.608;8.838;2022-12-11T01:59:41;-2.70;76.00
32293;DHT22;43233;48.608;8.838;2022-12-11T02:02:18;-2.70;75.70
32293;DHT22;43233;48.608;8.838;2022-12-11T02:04:46;-2.60;75.40
32293;DHT22;43233;48.608;8.838;2022-12-11T02:07:13;-2.60;75.40
32293;DHT22;43233;48.608;8.838;2022-12-11T02:09:40;-2.50;75.40
32293;DHT22;43233;48.608;8.838;2022-12-11T02:12:25;-2.50;75.10
32293;DHT22;43233;48.608;8.838;2022-12-11T02:17:58;-2.50;74.70
32293;DHT22;43233;48.608;8.838;2022-12-11T02:20:33;-2.50;74.60
32293;DHT22;43233;48.608;8.838;2022-12-11T02:28:57;-2.40;74.90
32293;DHT22;43233;48.608;8.838;2022-12-11T02:37:00;-2.50;73.60
32293;DHT22;43233;48.608;8.838;2022-12-11T02:39:27;-2.50;73.40
32293;DHT22;43233;48.608;8.838;2022-12-11T02:41:54;-2.50;73.20
32293;DHT22;43233;48.608;8.838;2022-12-11T02:44:27;-2.60;72.30
32293;DHT22;43233;48.608;8.838;2022-12-11T02:46:56;-2.70;71.40
32293;DHT22;43233;48.608;8.838;2022-12-11T02:49:23;-2.90;72.00
32293;DHT22;43233;48.608;8.838;2022-12-11T02:51:51;-2.90;72.80
32293;DHT22;43233;48.608;8.838;2022-12-11T02:54:22;-2.90;72.70
32293;DHT22;43233;48.608;8.838;2022-12-11T02:56:59;-2.90;72.70
32293;DHT22;43233;48.608;8.838;2022-12-11T02:59:33;-2.90;72.40
32293;DHT22;43233;48.608;8.838;2022-12-11T03:02:01;-3.00;71.50
32293;DHT22;43233;48.608;8.838;2022-12-11T03:04:28;-3.10;71.70
32293;DHT22;43233;48.608;8.838;2022-12-11T03:06:57;-3.00;72.10
32293;DHT22;43233;48.608;8.838;2022-12-11T03:09:24;-3.10;72.00
32293;DHT22;43233;48.608;8.838;2022-12-11T03:11:51;-3.00;71.80
32293;DHT22;43233;48.608;8.838;2022-12-11T03:14:17;-3.10;71.70
32293;DHT22;43233;48.608;8.838;2022-12-11T03:17:03;-3.10;71.50
32293;DHT22;43233;48.608;8.838;2022-12-11T03:19:40;-3.20;70.80
32293;DHT22;43233;48.608;8.838;2022-12-11T03:22:11;-3.50;70.80
32293;DHT22;43233;48.608;8.838;2022-12-11T03:24:50;-3.60;70.70
32293;DHT22;43233;48.608;8.838;2022-12-11T03:30:15;-3.70;71.70
32293;DHT22;43233;48.608;8.838;2022-12-11T03:32:50;-3.90;72.60
32293;DHT22;43233;48.608;8.838;2022-12-11T03:35:22;-3.90;72.90
32293;DHT22;43233;48.608;8.838;2022-12-11T03:37:50;-3.90;72.80
32293;DHT22;43233;48.608;8.838;2022-12-11T03:40:18;-4.00;73.10
32293;DHT22;43233;48.608;8.838;2022-12-11T03:42:47;-4.00;73.20
32293;DHT22;43233;48.608;8.838;2022-12-11T03:45:15;-4.00;73.70
32293;DHT22;43233;48.608;8.838;2022-12-11T03:47:43;-4.00;74.30
32293;DHT22;43233;48.608;8.838;2022-12-11T03:50:11;-3.90;74.30
32293;DHT22;43233;48.608;8.838;2022-12-11T03:52:42;-3.90;74.30
32293;DHT22;43233;48.608;8.838;2022-12-11T03:55:11;-3.90;74.00
32293;DHT22;43233;48.608;8.838;2022-12-11T03:57:38;-3.90;73.90
32293;DHT22;43233;48.608;8.838;2022-12-11T04:00:09;-3.80;73.50
32293;DHT22;43233;48.608;8.838;2022-12-11T04:02:35;-3.90;73.20
32293;DHT22;43233;48.608;8.838;2022-12-11T04:05:01;-3.90;73.60
32293;DHT22;43233;48.608;8.838;2022-12-11T04:07:27;-3.90;73.00
32293;DHT22;43233;48.608;8.838;2022-12-11T04:09:53;-3.90;73.00
32293;DHT22;43233;48.608;8.838;2022-12-11T04:12:19;-4.00;72.50
32293;DHT22;43233;48.608;8.838;2022-12-11T04:14:45;-4.00;72.70
32293;DHT22;43233;48.608;8.838;2022-12-11T04:17:30;-4.00;72.80
32293;DHT22;43233;48.608;8.838;2022-12-11T04:20:15;-4.00;73.50
32293;DHT22;43233;48.608;8.838;2022-12-11T04:22:59;-4.00;74.00
32293;DHT22;43233;48.608;8.838;2022-12-11T04:25:43;-3.90;74.40
32293;DHT22;43233;48.608;8.838;2022-12-11T04:28:09;-3.90;74.50
32293;DHT22;43233;48.608;8.838;2022-12-11T04:30:35;-3.80;74.70
32293;DHT22;43233;48.608;8.838;2022-12-11T04:33:00;-3.70;74.80
32293;DHT22;43233;48.608;8.838;2022-12-11T04:35:27;-3.70;74.70
32293;DHT22;43233;48.608;8.838;2022-12-11T04:37:52;-3.70;74.90
32293;DHT22;43233;48.608;8.838;2022-12-11T04:40:19;-3.60;74.80
32293;DHT22;43233;48.608;8.838;2022-12-11T04:42:44;-3.60;75.20
32293;DHT22;43233;48.608;8.838;2022-12-11T04:45:11;-3.50;75.20
32293;DHT22;43233;48.608;8.838;2022-12-11T04:47:38;-3.50;74.90
32293;DHT22;43233;48.608;8.838;2022-12-11T04:50:06;-3.40;74.50
32293;DHT22;43233;48.608;8.838;2022-12-11T04:52:32;-3.40;74.20
32293;DHT22;43233;48.608;8.838;2022-12-11T04:54:57;-3.40;74.10
32293;DHT22;43233;48.608;8.838;2022-12-11T04:57:23;-3.30;74.50
32293;DHT22;43233;48.608;8.838;2022-12-11T04:59:49;-3.30;73.70
32293;DHT22;43233;48.608;8.838;2022-12-11T05:02:15;-3.20;73.50
32293;DHT22;43233;48.608;8.838;2022-12-11T05:04:41;-3.20;73.40
32293;DHT22;43233;48.608;8.838;2022-12-11T05:07:07;-3.10;73.50
32293;DHT22;43233;48.608;8.838;2022-12-11T05:09:34;-3.00;72.70
32293;DHT22;43233;48.608;8.838;2022-12-11T05:12:00;-3.00;72.00
32293;DHT22;43233;48.608;8.838;2022-12-11T05:14:26;-3.00;72.10
32293;DHT22;43233;48.608;8.838;2022-12-11T05:16:52;-3.00;71.80
32293;DHT22;43233;48.608;8.838;2022-12-11T05:19:18;-3.10;72.10
32293;DHT22;43233;48.608;8.838;2022-12-11T05:21:43;-3.10;72.30
32293;DHT22;43233;48.608;8.838;2022-12-11T05:24:09;-3.10;72.30
32293;DHT22;43233;48.608;8.838;2022-12-11T05:26:35;-3.10;72.40
32293;DHT22;43233;48.608;8.838;2022-12-11T05:29:00;-3.10;72.70
32293;DHT22;43233;48.608;8.838;2022-12-11T05:31:26;-3.00;72.50
32293;DHT22;43233;48.608;8.838;2022-12-11T05:33:53;-3.00;72.00
32293;DHT22;43233;48.608;8.838;2022-12-11T05:36:27;-3.00;71.80
32293;DHT22;43233;48.608;8.838;2022-12-11T05:38:53;-3.00;71.90
32293;DHT22;43233;48.608;8.838;2022-12-11T05:41:22;-2.90;72.10
32293;DHT22;43233;48.608;8.838;2022-12-11T05:43:48;-2.80;71.80
32293;DHT22;43233;48.608;8.838;2022-12-11T05:46:16;-2.80;71.60
32293;DHT22;43233;48.608;8.838;2022-12-11T05:48:43;-2.80;71.20
32293;DHT22;43233;48.608;8.838;2022-12-11T05:51:09;-2.80;71.30
32293;DHT22;43233;48.608;8.838;2022-12-11T05:53:36;-2.90;71.40
32293;DHT22;43233;48.608;8.838;2022-12-11T05:56:16;-2.90;71.20
32293;DHT22;43233;48.608;8.838;2022-12-11T05:58:43;-2.90;71.30
32293;DHT22;43233;48.608;8.838;2022-12-11T06:01:11;-2.90;71.40
32293;DHT22;43233;48.608;8.838;2022-12-11T06:03:37;-2.90;71.40
32293;DHT22;43233;48.608;8.838;2022-12-11T06:06:04;-3.00;71.40
32293;DHT22;43233;48.608;8.838;2022-12-11T06:08:30;-3.00;71.50
32293;DHT22;43233;48.608;8.838;2022-12-11T06:10:56;-3.00;71.40
32293;DHT22;43233;48.608;8.838;2022-12-11T06:13:22;-3.00;71.40
32293;DHT22;43233;48.608;8.838;2022-12-11T06:15:48;-3.00;71.40
32293;DHT22;43233;48.608;8.838;2022-12-11T06:18:13;-3.00;71.50
32293;DHT22;43233;48.608;8.838;2022-12-11T06:20:39;-3.10;71.50
32293;DHT22;43233;48.608;8.838;2022-12-11T06:23:05;-3.10;71.60
32293;DHT22;43233;48.608;8.838;2022-12-11T06:25:31;-3.20;71.60
32293;DHT22;43233;48.608;8.838;2022-12-11T06:27:57;-3.20;71.60
32293;DHT22;43233;48.608;8.838;2022-12-11T06:30:22;-3.20;71.80
32293;DHT22;43233;48.608;8.838;2022-12-11T06:32:48;-3.20;71.90
32293;DHT22;43233;48.608;8.838;2022-12-11T06:35:14;-3.20;71.70
32293;DHT22;43233;48.608;8.838;2022-12-11T06:37:40;-3.30;71.20
32293;DHT22;43233;48.608;8.838;2022-12-11T06:40:07;-3.30;71.20
32293;DHT22;43233;48.608;8.838;2022-12-11T06:42:33;-3.40;71.40
32293;DHT22;43233;48.608;8.838;2022-12-11T06:44:59;-3.50;71.50
32293;DHT22;43233;48.608;8.838;2022-12-11T06:47:26;-3.60;72.00
32293;DHT22;43233;48.608;8.838;2022-12-11T06:49:51;-3.70;72.10
32293;DHT22;43233;48.608;8.838;2022-12-11T06:52:18;-3.70;72.70
32293;DHT22;43233;48.608;8.838;2022-12-11T06:54:44;-3.80;72.70
32293;DHT22;43233;48.608;8.838;2022-12-11T06:57:09;-3.70;72.60
32293;DHT22;43233;48.608;8.838;2022-12-11T06:59:35;-3.70;72.50
32293;DHT22;43233;48.608;8.838;2022-12-11T07:02:01;-3.80;72.60
32293;DHT22;43233;48.608;8.838;2022-12-11T07:04:26;-3.90;73.00
32293;DHT22;43233;48.608;8.838;2022-12-11T07:06:52;-3.80;73.10
32293;DHT22;43233;48.608;8.838;2022-12-11T07:09:18;-3.80;73.00
32293;DHT22;43233;48.608;8.838;2022-12-11T07:11:44;-3.90;73.80
32293;DHT22;43233;48.608;8.838;2022-12-11T07:14:10;-3.90;73.90
32293;DHT22;43233;48.608;8.838;2022-12-11T07:16:35;-3.90;74.40
32293;DHT22;43233;48.608;8.838;2022-12-11T07:19:01;-3.90;74.70
32293;DHT22;43233;48.608;8.838;2022-12-11T07:21:27;-4.00;75.20
32293;DHT22;43233;48.608;8.838;2022-12-11T07:23:52;-4.00;75.80
32293;DHT22;43233;48.608;8.838;2022-12-11T07:26:20;-4.00;76.00
32293;DHT22;43233;48.608;8.838;2022-12-11T07:28:47;-4.00;76.00
32293;DHT22;43233;48.608;8.838;2022-12-11T07:31:18;-3.90;76.10
32293;DHT22;43233;48.608;8.838;2022-12-11T07:33:44;-3.90;76.20
32293;DHT22;43233;48.608;8.838;2022-12-11T07:36:12;-3.80;76.20
32293;DHT22;43233;48.608;8.838;2022-12-11T07:38:38;-3.70;76.10
32293;DHT22;43233;48.608;8.838;2022-12-11T07:41:06;-3.70;76.00
32293;DHT22;43233;48.608;8.838;2022-12-11T07:43:32;-3.70;75.70
32293;DHT22;43233;48.608;8.838;2022-12-11T07:46:11;-3.60;75.40
32293;DHT22;43233;48.608;8.838;2022-12-11T07:48:38;-3.60;75.30
32293;DHT22;43233;48.608;8.838;2022-12-11T07:51:13;-3.50;75.20
32293;DHT22;43233;48.608;8.838;2022-12-11T07:53:44;-3.40;74.90
32293;DHT22;43233;48.608;8.838;2022-12-11T07:56:10;-3.40;74.40
32293;DHT22;43233;48.608;8.838;2022-12-11T07:58:36;-3.40;73.80
32293;DHT22;43233;48.608;8.838;2022-12-11T08:01:04;-3.40;73.50
32293;DHT22;43233;48.608;8.838;2022-12-11T08:03:29;-3.40;73.50
32293;DHT22;43233;48.608;8.838;2022-12-11T08:05:55;-3.40;73.20
32293;DHT22;43233;48.608;8.838;2022-12-11T08:08:21;-3.30;73.60
32293;DHT22;43233;48.608;8.838;2022-12-11T08:10:46;-3.20;73.80
32293;DHT22;43233;48.608;8.838;2022-12-11T08:13:12;-3.00;74.20
32293;DHT22;43233;48.608;8.838;2022-12-11T08:15:38;-2.80;73.80
32293;DHT22;43233;48.608;8.838;2022-12-11T08:18:04;-2.70;73.00
32293;DHT22;43233;48.608;8.838;2022-12-11T08:20:30;-2.60;72.20
32293;DHT22;43233;48.608;8.838;2022-12-11T08:22:56;-2.60;72.00
32293;DHT22;43233;48.608;8.838;2022-12-11T08:25:22;-2.60;72.00
32293;DHT22;43233;48.608;8.838;2022-12-11T08:27:48;-2.40;71.00
32293;DHT22;43233;48.608;8.838;2022-12-11T08:30:13;-2.30;70.30
32293;DHT22;43233;48.608;8.838;2022-12-11T08:32:39;-2.30;69.90
32293;DHT22;43233;48.608;8.838;2022-12-11T08:35:05;-2.30;69.50
32293;DHT22;43233;48.608;8.838;2022-12-11T08:37:33;-2.30;69.40
32293;DHT22;43233;48.608;8.838;2022-12-11T08:39:58;-2.30;69.60
32293;DHT22;43233;48.608;8.838;2022-12-11T08:42:24;-2.40;69.70
32293;DHT22;43233;48.608;8.838;2022-12-11T08:44:49;-2.50;69.90
32293;DHT22;43233;48.608;8.838;2022-12-11T08:47:16;-2.50;70.10
32293;DHT22;43233;48.608;8.838;2022-12-11T08:49:42;-2.60;70.50
32293;DHT22;43233;48.608;8.838;2022-12-11T08:52:07;-2.50;69.50
32293;DHT22;43233;48.608;8.838;2022-12-11T08:54:33;-2.50;69.30
32293;DHT22;43233;48.608;8.838;2022-12-11T08:56:59;-2.60;69.50
32293;DHT22;43233;48.608;8.838;2022-12-11T08:59:24;-2.60;69.50
32293;DHT22;43233;48.608;8.838;2022-12-11T09:01:51;-2.70;69.10
32293;DHT22;43233;48.608;8.838;2022-12-11T09:04:16;-2.70;69.60
32293;DHT22;43233;48.608;8.838;2022-12-11T09:06:42;-2.70;70.70
32293;DHT22;43233;48.608;8.838;2022-12-11T09:09:08;-2.60;71.10
32293;DHT22;43233;48.608;8.838;2022-12-11T09:11:35;-2.40;71.80
32293;DHT22;43233;48.608;8.838;2022-12-11T09:14:02;-2.30;71.50
32293;DHT22;43233;48.608;8.838;2022-12-11T09:16:28;-2.20;71.10
32293;DHT22;43233;48.608;8.838;2022-12-11T09:18:56;-2.00;71.30
32293;DHT22;43233;48.608;8.838;2022-12-11T09:21:24;-1.90;70.60
32293;DHT22;43233;48.608;8.838;2022-12-11T09:23:59;-1.70;69.80
32293;DHT22;43233;48.608;8.838;2022-12-11T09:26:26;-1.60;69.00
32293;DHT22;43233;48.608;8.838;2022-12-11T09:28:53;-1.60;68.40
32293;DHT22;43233;48.608;8.838;2022-12-11T09:31:22;-1.50;68.00
32293;DHT22;43233;48.608;8.838;2022-12-11T09:33:49;-1.50;68.30
32293;DHT22;43233;48.608;8.838;2022-12-11T09:36:15;-1.60;68.20
32293;DHT22;43233;48.608;8.838;2022-12-11T09:38:40;-1.60;68.10
32293;DHT22;43233;48.608;8.838;2022-12-11T09:41:38;-1.70;68.40
32293;DHT22;43233;48.608;8.838;2022-12-11T09:46:46;-1.60;68.40
32293;DHT22;43233;48.608;8.838;2022-12-11T09:52:27;-1.60;68.80
32293;DHT22;43233;48.608;8.838;2022-12-11T09:55:03;-1.60;68.90
32293;DHT22;43233;48.608;8.838;2022-12-11T10:00:29;-1.50;69.30
32293;DHT22;43233;48.608;8.838;2022-12-11T10:06:00;-1.50;69.40
32293;DHT22;43233;48.608;8.838;2022-12-11T10:17:08;-1.50;69.80
32293;DHT22;43233;48.608;8.838;2022-12-11T10:19:35;-1.40;69.50
32293;DHT22;43233;48.608;8.838;2022-12-11T10:22:01;-1.30;69.40
32293;DHT22;43233;48.608;8.838;2022-12-11T10:24:41;-1.30;69.40
32293;DHT22;43233;48.608;8.838;2022-12-11T10:27:21;-1.20;69.40
32293;DHT22;43233;48.608;8.838;2022-12-11T10:38:19;-1.10;69.70
32293;DHT22;43233;48.608;8.838;2022-12-11T10:40:51;-1.10;69.70
32293;DHT22;43233;48.608;8.838;2022-12-11T10:43:17;-1.10;69.60
32293;DHT22;43233;48.608;8.838;2022-12-11T10:45:53;-1.00;69.10
32293;DHT22;43233;48.608;8.838;2022-12-11T10:48:19;-1.00;69.10
32293;DHT22;43233;48.608;8.838;2022-12-11T10:50:59;-1.00;69.80
32293;DHT22;43233;48.608;8.838;2022-12-11T10:53:25;-0.90;69.60
32293;DHT22;43233;48.608;8.838;2022-12-11T10:55:51;-0.90;70.00
32293;DHT22;43233;48.608;8.838;2022-12-11T10:58:23;-0.70;68.40
32293;DHT22;43233;48.608;8.838;2022-12-11T11:01:13;-0.70;67.80
32293;DHT22;43233;48.608;8.838;2022-12-11T11:06:29;-0.60;67.00
32293;DHT22;43233;48.608;8.838;2022-12-11T11:08:57;-0.60;66.70
32293;DHT22;43233;48.608;8.838;2022-12-11T11:11:33;-0.70;67.70
32293;DHT22;43233;48.608;8.838;2022-12-11T11:14:15;-0.80;68.30
32293;DHT22;43233;48.608;8.838;2022-12-11T11:16:43;-0.60;67.90
32293;DHT22;43233;48.608;8.838;2022-12-11T11:21:53;-0.60;67.80
32293;DHT22;43233;48.608;8.838;2022-12-11T11:24:38;-0.60;68.10
32293;DHT22;43233;48.608;8.838;2022-12-11T11:27:13;-0.50;67.60
32293;DHT22;43233;48.608;8.838;2022-12-11T11:29:43;-0.50;68.00
32293;DHT22;43233;48.608;8.838;2022-12-11T11:32:35;-0.40;67.60
32293;DHT22;43233;48.608;8.838;2022-12-11T11:35:13;-0.50;68.40
32293;DHT22;43233;48.608;8.838;2022-12-11T11:37:51;-0.50;68.50
32293;DHT22;43233;48.608;8.838;2022-12-11T11:40:36;-0.60;68.70
32293;DHT22;43233;48.608;8.838;2022-12-11T11:43:53;-0.50;69.30
32293;DHT22;43233;48.608;8.838;2022-12-11T11:46:16;-0.40;69.00
32293;DHT22;43233;48.608;8.838;2022-12-11T11:51:48;-0.30;68.20
32293;DHT22;43233;48.608;8.838;2022-12-11T11:54:38;-0.30;67.90
32293;DHT22;43233;48.608;8.838;2022-12-11T11:59:56;-0.30;67.80
32293;DHT22;43233;48.608;8.838;2022-12-11T12:02:24;-0.40;68.10
32293;DHT22;43233;48.608;8.838;2022-12-11T12:04:49;-0.40;68.50
32293;DHT22;43233;48.608;8.838;2022-12-11T12:10:08;-0.20;68.30
32293;DHT22;43233;48.608;8.838;2022-12-11T12:17:57;-0.20;68.40
32293;DHT22;43233;48.608;8.838;2022-12-11T12:20:37;-0.20;68.50
32293;DHT22;43233;48.608;8.838;2022-12-11T12:26:07;-0.10;68.70
32293;DHT22;43233;48.608;8.838;2022-12-11T12:36:31;0.00;67.40
32293;DHT22;43233;48.608;8.838;2022-12-11T12:42:02;0.10;65.70
32293;DHT22;43233;48.608;8.838;2022-12-11T12:44:45;0.00;65.60
32293;DHT22;43233;48.608;8.838;2022-12-11T12:47:16;0.00;66.00
32293;DHT22;43233;48.608;8.838;2022-12-11T12:49:45;0.00;66.10
32293;DHT22;43233;48.608;8.838;2022-12-11T12:52:21;0.00;66.50
32293;DHT22;43233;48.608;8.838;2022-12-11T12:54:53;0.10;66.90
32293;DHT22;43233;48.608;8.838;2022-12-11T12:58:02;0.10;66.20
32293;DHT22;43233;48.608;8.838;2022-12-11T13:00:42;0.10;66.50
32293;DHT22;43233;48.608;8.838;2022-12-11T13:03:22;0.00;67.30
32293;DHT22;43233;48.608;8.838;2022-12-11T13:08:32;0.00;67.20
32293;DHT22;43233;48.608;8.838;2022-12-11T13:11:05;0.10;66.60
32293;DHT22;43233;48.608;8.838;2022-12-11T13:13:43;0.10;67.00
32293;DHT22;43233;48.608;8.838;2022-12-11T13:18:45;0.30;65.10
32293;DHT22;43233;48.608;8.838;2022-12-11T13:21:31;0.30;65.70
32293;DHT22;43233;48.608;8.838;2022-12-11T13:24:44;0.30;65.80
32293;DHT22;43233;48.608;8.838;2022-12-11T13:27:21;0.40;65.80
32293;DHT22;43233;48.608;8.838;2022-12-11T13:29:47;0.50;65.60
32293;DHT22;43233;48.608;8.838;2022-12-11T13:34:40;0.50;65.50
32293;DHT22;43233;48.608;8.838;2022-12-11T13:37:30;0.60;65.00
32293;DHT22;43233;48.608;8.838;2022-12-11T13:39:58;0.60;65.00
32293;DHT22;43233;48.608;8.838;2022-12-11T13:42:34;0.50;65.40
32293;DHT22;43233;48.608;8.838;2022-12-11T13:45:02;0.60;65.50
32293;DHT22;43233;48.608;8.838;2022-12-11T13:47:30;0.60;65.10
32293;DHT22;43233;48.608;8.838;2022-12-11T13:50:14;0.50;65.40
32293;DHT22;43233;48.608;8.838;2022-12-11T13:52:52;0.60;64.90
32293;DHT22;43233;48.608;8.838;2022-12-11T13:55:33;0.50;64.40
32293;DHT22;43233;48.608;8.838;2022-12-11T13:57:59;0.40;65.00
32293;DHT22;43233;48.608;8.838;2022-12-11T14:00:28;0.30;65.40
32293;DHT22;43233;48.608;8.838;2022-12-11T14:03:03;0.30;65.60
32293;DHT22;43233;48.608;8.838;2022-12-11T14:05:32;0.30;65.20
32293;DHT22;43233;48.608;8.838;2022-12-11T14:08:03;0.30;65.50
32293;DHT22;43233;48.608;8.838;2022-12-11T14:10:30;0.20;65.20
32293;DHT22;43233;48.608;8.838;2022-12-11T14:13:00;0.20;65.40
32293;DHT22;43233;48.608;8.838;2022-12-11T14:15:29;0.10;66.00
32293;DHT22;43233;48.608;8.838;2022-12-11T14:17:55;0.00;66.10
32293;DHT22;43233;48.608;8.838;2022-12-11T14:20:25;0.00;66.30
32293;DHT22;43233;48.608;8.838;2022-12-11T14:26:21;0.00;67.10
32293;DHT22;43233;48.608;8.838;2022-12-11T14:28:48;-0.10;67.20
32293;DHT22;43233;48.608;8.838;2022-12-11T14:31:18;-0.10;67.40
32293;DHT22;43233;48.608;8.838;2022-12-11T14:33:51;-0.20;67.50
32293;DHT22;43233;48.608;8.838;2022-12-11T14:36:18;-0.10;67.40
32293;DHT22;43233;48.608;8.838;2022-12-11T14:38:48;-0.10;67.20
32293;DHT22;43233;48.608;8.838;2022-12-11T14:41:28;-0.20;67.50
32293;DHT22;43233;48.608;8.838;2022-12-11T14:43:58;-0.20;67.80
32293;DHT22;43233;48.608;8.838;2022-12-11T14:46:47;-0.20;68.30
32293;DHT22;43233;48.608;8.838;2022-12-11T14:49:43;-0.30;68.80
32293;DHT22;43233;48.608;8.838;2022-12-11T14:52:23;-0.30;69.30
32293;DHT22;43233;48.608;8.838;2022-12-11T14:54:55;-0.30;69.90
32293;DHT22;43233;48.608;8.838;2022-12-11T14:57:26;-0.30;70.30
32293;DHT22;43233;48.608;8.838;2022-12-11T14:59:54;-0.30;70.20
32293;DHT22;43233;48.608;8.838;2022-12-11T15:02:31;-0.40;69.70
32293;DHT22;43233;48.608;8.838;2022-12-11T15:05:12;-0.40;69.70
32293;DHT22;43233;48.608;8.838;2022-12-11T15:07:41;-0.50;70.50
32293;DHT22;43233;48.608;8.838;2022-12-11T15:10:23;-0.50;70.90
32293;DHT22;43233;48.608;8.838;2022-12-11T15:12:50;-0.50;71.10
32293;DHT22;43233;48.608;8.838;2022-12-11T15:15:16;-0.40;71.40
32293;DHT22;43233;48.608;8.838;2022-12-11T15:17:42;-0.40;71.30
32293;DHT22;43233;48.608;8.838;2022-12-11T15:20:18;-0.50;71.40
32293;DHT22;43233;48.608;8.838;2022-12-11T15:22:45;-0.40;71.50
32293;DHT22;43233;48.608;8.838;2022-12-11T15:25:19;-0.40;71.30
32293;DHT22;43233;48.608;8.838;2022-12-11T15:27:49;-0.40;71.50
32293;DHT22;43233;48.608;8.838;2022-12-11T15:32:44;-0.40;71.90
32293;DHT22;43233;48.608;8.838;2022-12-11T15:35:24;-0.40;71.90
32293;DHT22;43233;48.608;8.838;2022-12-11T15:37:55;-0.40;71.80
32293;DHT22;43233;48.608;8.838;2022-12-11T15:40:22;-0.30;71.50
32293;DHT22;43233;48.608;8.838;2022-12-11T15:42:48;-0.40;69.90
32293;DHT22;43233;48.608;8.838;2022-12-11T15:45:19;-0.50;69.90
32293;DHT22;43233;48.608;8.838;2022-12-11T15:47:46;-0.50;70.40
32293;DHT22;43233;48.608;8.838;2022-12-11T15:50:28;-0.50;70.10
32293;DHT22;43233;48.608;8.838;2022-12-11T15:52:54;-0.50;69.20
32293;DHT22;43233;48.608;8.838;2022-12-11T15:55:21;-0.50;69.10
32293;DHT22;43233;48.608;8.838;2022-12-11T15:57:56;-0.50;68.50
32293;DHT22;43233;48.608;8.838;2022-12-11T16:00:23;-0.50;68.80
32293;DHT22;43233;48.608;8.838;2022-12-11T16:02:49;-0.50;67.60
32293;DHT22;43233;48.608;8.838;2022-12-11T16:05:16;-0.50;67.10
32293;DHT22;43233;48.608;8.838;2022-12-11T16:07:41;-0.50;66.90
32293;DHT22;43233;48.608;8.838;2022-12-11T16:10:12;-0.40;66.80
32293;DHT22;43233;48.608;8.838;2022-12-11T16:12:39;-0.40;66.40
32293;DHT22;43233;48.608;8.838;2022-12-11T16:15:05;-0.40;65.70
32293;DHT22;43233;48.608;8.838;2022-12-11T16:17:30;-0.40;65.90
32293;DHT22;43233;48.608;8.838;2022-12-11T16:19:56;-0.40;65.20
32293;DHT22;43233;48.608;8.838;2022-12-11T16:22:22;-0.50;65.40
32293;DHT22;43233;48.608;8.838;2022-12-11T16:24:52;-0.50;65.30
32293;DHT22;43233;48.608;8.838;2022-12-11T16:27:19;-0.50;65.50
32293;DHT22;43233;48.608;8.838;2022-12-11T16:29:44;-0.50;65.80
32293;DHT22;43233;48.608;8.838;2022-12-11T16:32:10;-0.50;66.00
32293;DHT22;43233;48.608;8.838;2022-12-11T16:34:36;-0.40;66.00
32293;DHT22;43233;48.608;8.838;2022-12-11T16:37:04;-0.40;65.60
32293;DHT22;43233;48.608;8.838;2022-12-11T16:39:29;-0.50;65.30
32293;DHT22;43233;48.608;8.838;2022-12-11T16:41:55;-0.60;64.80
32293;DHT22;43233;48.608;8.838;2022-12-11T16:44:23;-0.60;65.30
32293;DHT22;43233;48.608;8.838;2022-12-11T16:46:50;-0.80;65.60
32293;DHT22;43233;48.608;8.838;2022-12-11T16:49:16;-0.90;65.90
32293;DHT22;43233;48.608;8.838;2022-12-11T16:51:42;-1.00;65.90
32293;DHT22;43233;48.608;8.838;2022-12-11T16:54:08;-0.90;66.00
32293;DHT22;43233;48.608;8.838;2022-12-11T16:56:34;-0.90;65.70
32293;DHT22;43233;48.608;8.838;2022-12-11T16:59:00;-0.90;65.70
32293;DHT22;43233;48.608;8.838;2022-12-11T17:01:26;-0.80;66.20
32293;DHT22;43233;48.608;8.838;2022-12-11T17:03:52;-0.80;67.20
32293;DHT22;43233;48.608;8.838;2022-12-11T17:06:18;-0.80;67.70
32293;DHT22;43233;48.608;8.838;2022-12-11T17:08:44;-0.80;68.60
32293;DHT22;43233;48.608;8.838;2022-12-11T17:11:13;-0.80;69.10
32293;DHT22;43233;48.608;8.838;2022-12-11T17:13:39;-0.80;69.40
32293;DHT22;43233;48.608;8.838;2022-12-11T17:16:10;-0.80;69.50
32293;DHT22;43233;48.608;8.838;2022-12-11T17:18:36;-0.80;69.80
32293;DHT22;43233;48.608;8.838;2022-12-11T17:21:06;-0.90;70.00
32293;DHT22;43233;48.608;8.838;2022-12-11T17:23:33;-0.90;70.00